Time;durP1;ratioP1;P1;durP2;ratioP2;P2;SDS_P1;SDS_P2;PMS_P1;PMS_P2;Temp;Humidity;BMP_temperature;BMP_pressure;BME280_temperature;BME280_humidity;BME280_pressure;Samples;Min_cycle;Max_cycle;Signal;HPM_P1;HPM_P2
2022/07/07 00:01:12;;;;;;;13.77;7.70;;;;;;;17.35;75.18;101985.47;4723735;30;20161;-86
2022/07/07 00:03:38;;;;;;;14.02;7.60;;;;;;;17.35;75.46;101988.16;4741972;30;20575;-86
2022/07/07 00:06:03;;;;;;;11.63;7.72;;;;;;;17.31;75.26;101973.09;4741272;30;20109;-86
2022/07/07 00:08:29;;;;;;;11.63;7.60;;;;;;;17.33;74.79;101972.16;4756292;30;20085;-87
2022/07/07 00:10:56;;;;;;;12.70;7.38;;;;;;;17.35;75.31;101972.97;4741329;30;20051;-87
2022/07/07 00:13:22;;;;;;;13.25;7.80;;;;;;;17.31;74.80;101965.97;4769981;30;20032;-86
2022/07/07 00:15:48;;;;;;;16.20;7.65;;;;;;;17.29;75.48;101967.81;4752186;30;20038;-87
2022/07/07 00:18:15;;;;;;;9.70;7.32;;;;;;;17.29;75.73;101958.91;4752139;30;20040;-87
2022/07/07 00:20:40;;;;;;;13.73;7.28;;;;;;;17.31;75.47;101965.06;4741332;30;20636;-87
2022/07/07 00:23:06;;;;;;;12.07;8.13;;;;;;;17.28;75.60;101949.13;4755414;30;20124;-87
2022/07/07 00:25:32;;;;;;;13.75;8.25;;;;;;;17.31;76.12;101960.63;4723558;30;20469;-86
2022/07/07 00:27:57;;;;;;;17.17;8.40;;;;;;;17.29;75.74;101935.69;4739208;30;20098;-87
2022/07/07 00:30:23;;;;;;;12.38;7.43;;;;;;;17.32;75.35;101929.34;4755476;30;20031;-85
2022/07/07 00:32:48;;;;;;;14.35;8.20;;;;;;;17.25;75.50;101926.00;4755706;30;20536;-87
2022/07/07 00:35:14;;;;;;;11.88;7.75;;;;;;;17.28;75.07;101925.03;4756020;30;20526;-86
2022/07/07 00:37:39;;;;;;;13.60;7.53;;;;;;;17.33;75.44;101931.09;4756052;30;20144;-86
2022/07/07 00:40:06;;;;;;;14.82;7.50;;;;;;;17.30;75.33;101932.06;4740669;30;20039;-87
2022/07/07 00:42:31;;;;;;;11.52;7.93;;;;;;;17.33;75.74;101936.44;4740768;30;20146;-85
2022/07/07 00:44:57;;;;;;;9.15;6.70;;;;;;;17.34;75.54;101922.16;4755381;30;20540;-85
2022/07/07 00:47:23;;;;;;;11.27;7.57;;;;;;;17.39;75.33;101925.56;4740774;30;20105;-85
2022/07/07 00:49:49;;;;;;;12.32;7.00;;;;;;;17.33;74.88;101913.25;4755358;30;20504;-86
2022/07/07 00:52:15;;;;;;;13.85;7.00;;;;;;;17.32;75.70;101902.59;4767462;30;20032;-87
2022/07/07 00:54:51;;;;;;;13.48;6.93;;;;;;;17.34;75.44;101898.94;4747297;30;20047;-85
2022/07/07 00:57:16;;;;;;;11.52;6.43;;;;;;;17.32;75.47;101898.09;4755444;30;20038;-87
2022/07/07 00:59:42;;;;;;;13.05;7.05;;;;;;;17.33;75.49;101897.19;4763022;30;20103;-85
2022/07/07 01:02:07;;;;;;;11.55;7.35;;;;;;;17.38;75.46;101905.94;4736313;30;20067;-85
2022/07/07 01:04:34;;;;;;;10.48;6.35;;;;;;;17.29;75.40;101898.22;4725814;30;20048;-85
2022/07/07 01:07:01;;;;;;;10.82;6.65;;;;;;;17.38;75.59;101913.06;4755371;30;20096;-84
2022/07/07 01:09:27;;;;;;;10.68;6.50;;;;;;;17.33;74.46;101910.59;4739846;30;20112;-85
2022/07/07 01:11:56;;;;;;;8.82;6.70;;;;;;;17.28;75.74;101900.94;4763916;30;20114;-84
2022/07/07 01:14:22;;;;;;;10.75;5.90;;;;;;;17.33;75.57;101902.56;4754111;30;20373;-85
2022/07/07 01:16:49;;;;;;;17.75;6.70;;;;;;;17.29;75.99;101900.03;4755148;30;20032;-85
2022/07/07 01:19:16;;;;;;;10.82;6.43;;;;;;;17.41;75.80;101918.34;4751224;30;20130;-85
2022/07/07 01:21:42;;;;;;;9.43;6.47;;;;;;;17.37;76.16;101909.53;4740894;30;20055;-85
2022/07/07 01:24:08;;;;;;;13.82;6.05;;;;;;;17.37;76.38;101909.53;4739754;30;20101;-86
2022/07/07 01:26:33;;;;;;;9.23;6.25;;;;;;;17.32;76.90;101898.09;4709905;30;20404;-84
2022/07/07 01:28:59;;;;;;;12.05;6.78;;;;;;;17.28;76.84;101888.41;4732724;30;20032;-84
2022/07/07 01:31:30;;;;;;;8.65;6.32;;;;;;;17.34;76.72;101898.94;4754835;30;20409;-85
2022/07/07 01:33:56;;;;;;;15.18;6.30;;;;;;;17.36;76.63;101896.22;4743626;30;20040;-86
2022/07/07 01:36:22;;;;;;;12.07;6.28;;;;;;;17.35;76.98;101897.13;4751551;30;20035;-84
2022/07/07 01:38:47;;;;;;;11.13;6.10;;;;;;;17.33;77.18;101886.47;4754577;30;20437;-84
2022/07/07 01:41:13;;;;;;;10.55;5.50;;;;;;;17.29;76.59;101876.78;4754146;30;20067;-85
2022/07/07 01:43:39;;;;;;;9.23;5.75;;;;;;;17.36;77.13;101885.50;4754245;30;20032;-86
2022/07/07 01:46:04;;;;;;;11.65;5.75;;;;;;;17.36;77.06;101883.69;4739893;30;20042;-85
2022/07/07 01:48:30;;;;;;;10.50;6.07;;;;;;;17.36;77.03;101881.03;4754618;30;20031;-86
2022/07/07 01:50:55;;;;;;;7.30;5.43;;;;;;;17.41;76.68;101883.53;4754773;30;20047;-84
2022/07/07 01:53:21;;;;;;;14.50;5.07;;;;;;;17.38;76.72;101868.47;4754660;30;20032;-86
2022/07/07 01:55:46;;;;;;;13.13;5.10;;;;;;;17.45;76.92;101885.16;4736672;30;20386;-86
2022/07/07 01:58:13;;;;;;;9.07;4.65;;;;;;;17.45;76.92;101865.56;4739307;30;20093;-86
2022/07/07 02:00:39;;;;;;;7.05;4.60;;;;;;;17.40;77.41;101866.59;4724713;30;20066;-86
2022/07/07 02:03:04;;;;;;;8.00;4.90;;;;;;;17.42;77.54;101878.13;4736044;30;20064;-85
2022/07/07 02:05:30;;;;;;;10.38;4.25;;;;;;;17.40;77.93;101871.94;4752508;30;20054;-85
2022/07/07 02:07:56;;;;;;;7.05;4.68;;;;;;;17.48;77.33;101874.38;4740572;30;20472;-85
2022/07/07 02:13:06;;;;;;;9.50;4.82;;;;;;;17.48;77.42;101882.41;4761540;30;20382;-85
2022/07/07 02:15:32;;;;;;;7.80;4.43;;;;;;;17.48;77.42;101871.69;4761170;30;20038;-85
2022/07/07 02:17:58;;;;;;;8.20;3.55;;;;;;;17.47;77.71;101863.72;4745239;30;20044;-86
2022/07/07 02:20:24;;;;;;;6.82;3.50;;;;;;;17.53;77.55;101867.06;4753655;30;20066;-86
2022/07/07 02:22:50;;;;;;;6.30;3.55;;;;;;;17.52;77.22;101864.44;4738892;30;20477;-85
2022/07/07 02:25:15;;;;;;;10.73;3.63;;;;;;;17.52;77.76;101853.72;4757222;30;20039;-89
2022/07/07 02:27:41;;;;;;;7.38;3.45;;;;;;;17.59;76.67;101874.00;4755433;30;20128;-92
2022/07/07 02:30:07;;;;;;;8.45;3.33;;;;;;;17.57;77.24;101862.47;4737356;30;20719;-91
2022/07/07 02:32:33;;;;;;;6.65;3.25;;;;;;;17.61;77.65;101866.78;4739626;30;20035;-90
2022/07/07 02:34:59;;;;;;;7.13;3.05;;;;;;;17.61;77.75;101870.34;4739846;30;20365;-91
2022/07/07 02:37:25;;;;;;;9.75;3.22;;;;;;;17.64;77.71;101864.00;4754458;30;20050;-90
2022/07/07 02:39:51;;;;;;;12.57;3.28;;;;;;;17.66;78.13;101875.53;4739065;30;20038;-92
2022/07/07 02:42:17;;;;;;;5.10;3.05;;;;;;;17.67;77.44;101871.91;4738160;30;20039;-90
2022/07/07 02:44:42;;;;;;;9.55;3.30;;;;;;;17.67;76.94;101877.28;4717736;30;20064;-89
2022/07/07 02:47:08;;;;;;;6.32;2.70;;;;;;;17.62;76.06;101866.72;4739356;30;20043;-90
2022/07/07 02:49:33;;;;;;;6.55;2.67;;;;;;;17.68;76.31;101880.81;4739145;30;20556;-91
2022/07/07 02:51:59;;;;;;;9.85;2.65;;;;;;;17.65;76.05;101873.78;4753829;30;20039;-90
2022/07/07 02:54:25;;;;;;;5.38;2.53;;;;;;;17.70;75.42;101878.97;4753808;30;20107;-90
2022/07/07 02:56:50;;;;;;;3.88;2.22;;;;;;;17.68;75.01;101883.50;4724539;30;20043;-90
2022/07/07 02:59:16;;;;;;;7.55;2.13;;;;;;;17.67;74.60;101888.00;4754850;30;20040;-90
2022/07/07 03:01:49;;;;;;;6.90;1.75;;;;;;;17.57;73.21;101863.31;4740009;30;20087;-91
2022/07/07 03:04:15;;;;;;;7.95;1.90;;;;;;;17.58;73.05;101866.88;4738787;30;20459;-91
2022/07/07 03:06:40;;;;;;;4.57;1.50;;;;;;;17.54;72.59;101878.66;4739378;30;20039;-90
2022/07/07 03:09:06;;;;;;;5.90;1.70;;;;;;;17.49;71.79;101873.44;4738600;30;20043;-89
2022/07/07 03:11:31;;;;;;;3.50;1.58;;;;;;;17.52;72.04;101880.50;4753558;30;20130;-91
2022/07/07 03:13:57;;;;;;;4.03;1.90;;;;;;;17.60;72.48;101898.03;4738746;30;20062;-90
2022/07/07 03:16:22;;;;;;;5.07;1.63;;;;;;;17.44;73.28;101898.63;4738745;30;20035;-90
2022/07/07 03:18:48;;;;;;;5.28;1.70;;;;;;;17.28;74.31;101880.38;4736177;30;20071;-89
2022/07/07 03:21:14;;;;;;;3.20;1.70;;;;;;;17.27;75.44;101881.31;4736250;30;20082;-89
2022/07/07 03:23:39;;;;;;;5.05;1.88;;;;;;;17.26;76.08;101892.97;4730443;30;20036;-91
2022/07/07 03:26:05;;;;;;;9.25;1.98;;;;;;;17.18;78.01;101890.53;4722841;30;20508;-89
2022/07/07 03:28:32;;;;;;;3.80;1.70;;;;;;;17.05;77.87;101870.44;4753387;30;20109;-90
2022/07/07 03:30:57;;;;;;;5.20;1.73;;;;;;;17.07;77.90;101881.09;4724288;30;20098;-91
2022/07/07 03:33:24;;;;;;;9.45;1.70;;;;;;;17.00;77.66;101887.56;4738511;30;20119;-88
2022/07/07 03:35:52;;;;;;;1.50;1.40;;;;;;;16.96;78.50;101884.09;4738638;30;20127;-92
2022/07/07 03:38:17;;;;;;;5.45;1.83;;;;;;;16.88;79.34;101884.34;4741726;30;20043;-90
2022/07/07 03:40:44;;;;;;;6.38;1.80;;;;;;;16.93;79.59;101879.72;4739510;30;20032;-93
2022/07/07 03:43:10;;;;;;;4.47;2.17;;;;;;;16.77;80.07;101871.28;4750075;30;20044;-93
2022/07/07 03:45:35;;;;;;;4.53;2.00;;;;;;;16.84;80.67;101884.50;4742261;30;20031;-89
2022/07/07 03:48:01;;;;;;;3.22;2.03;;;;;;;16.65;82.04;101885.03;4727625;30;20163;-91
2022/07/07 03:50:26;;;;;;;7.10;2.03;;;;;;;16.65;82.17;101884.19;4742947;30;20477;-93
2022/07/07 03:52:52;;;;;;;8.90;2.20;;;;;;;16.53;82.26;101866.69;4739695;30;20051;-90
2022/07/07 03:55:18;;;;;;;4.78;2.13;;;;;;;16.43;83.25;101865.22;4752345;30;20028;-91
2022/07/07 03:57:43;;;;;;;6.30;2.33;;;;;;;16.41;83.32;101867.06;4742731;30;20039;-91
2022/07/07 04:00:09;;;;;;;4.85;2.45;;;;;;;16.43;83.80;101874.13;4727723;30;20621;-92
2022/07/07 04:02:35;;;;;;;4.72;2.25;;;;;;;16.40;83.39;101870.69;4743635;30;20048;-91
2022/07/07 04:05:01;;;;;;;4.68;2.10;;;;;;;16.41;84.05;101872.41;4741947;30;20110;-91
2022/07/07 04:07:26;;;;;;;5.63;2.00;;;;;;;16.41;84.26;101865.25;4724182;30;20119;-89
2022/07/07 04:09:52;;;;;;;5.57;1.98;;;;;;;16.42;84.77;101868.81;4731878;30;20108;-89
2022/07/07 04:12:17;;;;;;;3.53;2.05;;;;;;;16.37;84.96;101860.94;4741085;30;20058;-90
2022/07/07 04:14:43;;;;;;;3.88;2.30;;;;;;;16.39;85.08;101861.75;4762792;30;20044;-89
2022/07/07 04:17:09;;;;;;;5.70;2.30;;;;;;;16.37;85.50;101857.38;4752141;30;20449;-90
2022/07/07 04:19:35;;;;;;;5.45;2.40;;;;;;;16.39;85.41;101867.09;4731133;30;20044;-89
2022/07/07 04:22:01;;;;;;;3.58;2.20;;;;;;;16.42;86.06;101874.16;4747867;30;20139;-89
2022/07/07 04:24:27;;;;;;;3.75;2.28;;;;;;;16.34;86.08;101864.59;4752226;30;20031;-88
2022/07/07 04:26:52;;;;;;;6.85;2.60;;;;;;;16.35;87.68;101865.47;4744645;30;20039;-87
2022/07/07 04:29:18;;;;;;;6.10;2.70;;;;;;;16.27;88.10;101868.38;4756142;30;20042;-83
2022/07/07 04:31:44;;;;;;;4.35;2.67;;;;;;;16.21;89.30;101867.66;4771558;30;20115;-86
2022/07/07 04:34:12;;;;;;;5.28;2.40;;;;;;;16.15;89.64;101873.16;4755300;30;20032;-88
2022/07/07 04:36:38;;;;;;;4.72;2.60;;;;;;;16.15;90.04;101883.84;4756323;30;20047;-87
2022/07/07 04:39:03;;;;;;;5.43;2.33;;;;;;;16.13;89.59;101895.47;4740863;30;20047;-87
2022/07/07 04:41:29;;;;;;;3.75;2.00;;;;;;;16.06;90.43;101893.88;4744366;30;20056;-86
2022/07/07 04:43:54;;;;;;;5.25;1.70;;;;;;;16.05;88.86;101897.50;4755295;30;20115;-87
2022/07/07 04:46:20;;;;;;;4.82;2.30;;;;;;;16.01;90.80;101897.63;4723676;30;20416;-87
2022/07/07 04:48:45;;;;;;;3.85;1.80;;;;;;;15.99;89.58;101899.44;4757022;30;20415;-87
2022/07/07 04:51:11;;;;;;;6.95;2.13;;;;;;;16.03;90.66;101914.47;4760779;30;20055;-87
2022/07/07 04:53:36;;;;;;;3.08;2.03;;;;;;;16.01;91.31;101910.97;4753676;30;20071;-86
2022/07/07 04:56:02;;;;;;;7.78;2.20;;;;;;;16.02;92.24;101905.59;4755079;30;20048;-87
2022/07/07 04:58:27;;;;;;;4.57;2.15;;;;;;;16.03;91.23;101898.47;4754952;30;20497;-87
2022/07/07 05:00:53;;;;;;;9.85;2.05;;;;;;;16.00;91.38;101901.19;4727268;30;20435;-86
2022/07/07 05:03:19;;;;;;;4.95;1.92;;;;;;;15.96;91.06;101902.22;4765587;30;20055;-86
2022/07/07 05:05:44;;;;;;;5.95;1.73;;;;;;;15.97;91.72;101906.63;4757794;30;20039;-89
2022/07/07 05:08:09;;;;;;;3.80;1.65;;;;;;;15.98;90.97;101919.09;4729158;30;20109;-88
2022/07/07 05:10:35;;;;;;;6.25;2.10;;;;;;;15.93;91.10;101916.53;4729707;30;20035;-88
2022/07/07 05:13:01;;;;;;;7.40;1.50;;;;;;;15.91;90.90;101926.38;4753339;30;20075;-87
2022/07/07 05:15:26;;;;;;;6.18;2.38;;;;;;;15.92;91.67;101928.13;4736717;30;20391;-87
2022/07/07 05:17:52;;;;;;;4.75;2.00;;;;;;;15.92;91.76;101933.47;4722779;30;20028;-88
2022/07/07 05:20:17;;;;;;;4.80;1.52;;;;;;;15.90;91.19;101935.31;4736122;30;20062;-88
2022/07/07 05:22:43;;;;;;;5.95;1.73;;;;;;;15.87;91.67;101933.59;4736567;30;20044;-88
2022/07/07 05:25:08;;;;;;;10.95;2.47;;;;;;;15.94;91.03;101944.97;4729346;30;20032;-88
2022/07/07 05:27:34;;;;;;;5.70;1.60;;;;;;;15.94;91.03;101936.97;4736495;30;20055;-88
2022/07/07 05:30:00;;;;;;;6.80;1.98;;;;;;;15.98;91.65;101933.31;4746646;30;20039;-87
2022/07/07 05:32:25;;;;;;;7.07;2.08;;;;;;;16.04;90.75;101942.94;4721757;30;20086;-88
2022/07/07 05:34:51;;;;;;;5.43;1.85;;;;;;;16.03;89.93;101936.72;4755180;30;20023;-87
2022/07/07 05:37:16;;;;;;;5.13;1.50;;;;;;;16.03;89.44;101939.41;4707147;30;20036;-88
2022/07/07 05:39:41;;;;;;;4.45;1.52;;;;;;;16.01;88.91;101949.25;4735786;30;20389;-88
2022/07/07 05:42:07;;;;;;;7.35;1.90;;;;;;;16.05;90.14;101950.06;4718087;30;20401;-88
2022/07/07 05:44:32;;;;;;;7.30;2.03;;;;;;;16.07;89.61;101962.47;4721671;30;20046;-87
2022/07/07 05:46:58;;;;;;;8.00;2.28;;;;;;;16.05;89.85;101961.63;4727964;30;20043;-89
2022/07/07 05:49:24;;;;;;;9.13;1.70;;;;;;;16.06;90.66;101973.19;4722059;30;20102;-87
2022/07/07 05:51:49;;;;;;;9.98;2.00;;;;;;;16.01;91.07;101975.97;4736029;30;20024;-87
2022/07/07 05:54:14;;;;;;;11.45;2.20;;;;;;;15.99;91.28;101974.25;4751624;30;20048;-85
2022/07/07 05:56:40;;;;;;;8.07;2.17;;;;;;;15.97;91.00;101984.09;4736084;30;20028;-86
2022/07/07 05:59:05;;;;;;;7.82;1.95;;;;;;;16.00;90.16;101987.59;4722343;30;20043;-88
2022/07/07 06:01:31;;;;;;;8.68;1.90;;;;;;;16.09;89.93;101987.31;4708015;30;20035;-87
2022/07/07 06:03:56;;;;;;;13.98;1.98;;;;;;;16.22;88.67;101995.91;4737922;30;20043;-88
2022/07/07 06:06:22;;;;;;;8.80;1.60;;;;;;;16.30;88.42;101985.88;4736725;30;20576;-88
2022/07/07 06:08:47;;;;;;;11.25;2.05;;;;;;;16.35;87.14;101996.44;4738228;30;20044;-88
2022/07/07 06:11:13;;;;;;;11.85;2.78;;;;;;;16.36;84.74;102002.66;4750392;30;20035;-89
2022/07/07 06:13:38;;;;;;;14.23;2.17;;;;;;;16.33;83.40;102019.66;4725023;30;20344;-89
2022/07/07 06:16:05;;;;;;;10.07;2.40;;;;;;;16.26;82.88;102018.94;4735862;30;20092;-87
2022/07/07 06:18:30;;;;;;;17.80;2.35;;;;;;;16.22;84.39;102011.03;4732832;30;20047;-89
2022/07/07 06:20:56;;;;;;;9.45;2.13;;;;;;;16.25;82.39;102024.34;4754373;30;20031;-87
2022/07/07 06:23:21;;;;;;;7.50;1.98;;;;;;;16.27;82.76;102022.47;4769154;30;20071;-88
2022/07/07 06:25:47;;;;;;;11.48;2.40;;;;;;;16.30;82.71;102028.66;4738687;30;20370;-88
2022/07/07 06:28:13;;;;;;;18.25;2.55;;;;;;;16.24;82.10;102028.78;4735764;30;20562;-89
2022/07/07 06:30:38;;;;;;;12.55;2.30;;;;;;;16.29;82.00;102036.69;4725766;30;20559;-90
2022/07/07 06:33:04;;;;;;;11.18;2.33;;;;;;;16.28;82.43;102032.28;4723532;30;20035;-89
2022/07/07 06:35:29;;;;;;;12.43;2.60;;;;;;;16.34;81.71;102049.03;4725653;30;20126;-90
2022/07/07 06:37:57;;;;;;;14.98;2.95;;;;;;;16.28;80.43;102042.97;4708912;30;20062;-90
2022/07/07 06:40:23;;;;;;;13.18;2.53;;;;;;;16.21;78.64;102049.38;4738868;30;20047;-90
2022/07/07 06:42:48;;;;;;;16.25;2.58;;;;;;;16.22;79.98;102065.41;4753511;30;20036;-88
2022/07/07 06:45:21;;;;;;;10.35;2.15;;;;;;;16.21;79.28;102073.44;4739078;30;20485;-88
2022/07/07 06:47:47;;;;;;;7.53;1.58;;;;;;;16.04;79.65;102065.84;4753827;30;20078;-91
2022/07/07 06:50:12;;;;;;;7.95;1.63;;;;;;;16.09;79.63;102078.16;4738648;30;20028;-89
2022/07/07 06:52:38;;;;;;;7.82;1.90;;;;;;;16.02;79.43;102070.34;4736167;30;20304;-91
2022/07/07 06:55:05;;;;;;;7.43;1.75;;;;;;;15.95;78.95;102076.75;4734592;30;20031;-90
2022/07/07 06:57:31;;;;;;;5.07;1.25;;;;;;;15.97;78.39;102067.78;4722944;30;20063;-91
2022/07/07 06:59:56;;;;;;;7.15;1.67;;;;;;;16.01;79.11;102063.25;4749597;30;20112;-90
2022/07/07 07:02:22;;;;;;;10.38;2.25;;;;;;;16.13;76.89;102060.28;4738898;30;20155;-88
2022/07/07 07:04:50;;;;;;;6.55;1.55;;;;;;;16.24;77.67;102063.53;4754806;30;20062;-91
2022/07/07 07:07:19;;;;;;;6.97;1.85;;;;;;;16.30;76.50;102055.38;4740143;30;20042;-91
2022/07/07 07:09:45;;;;;;;7.35;1.75;;;;;;;16.46;75.67;102082.56;4760869;30;20040;-87
2022/07/07 07:12:10;;;;;;;6.30;1.45;;;;;;;16.55;75.25;102078.78;4767414;30;20028;-87
2022/07/07 07:14:36;;;;;;;14.98;1.75;;;;;;;16.63;74.55;102067.88;4750808;30;20032;-88
2022/07/07 07:17:02;;;;;;;10.05;1.83;;;;;;;16.75;75.50;102070.22;4770804;30;20034;-88
2022/07/07 07:19:30;;;;;;;12.43;1.70;;;;;;;16.91;74.93;102076.94;4746294;30;20500;-89
2022/07/07 07:21:58;;;;;;;5.43;1.42;;;;;;;16.96;73.26;102066.06;4741824;30;20028;-88
2022/07/07 07:24:23;;;;;;;9.75;2.20;;;;;;;16.96;72.69;102077.66;4764017;30;20365;-88
2022/07/07 07:26:49;;;;;;;8.32;1.40;;;;;;;16.89;72.74;102078.75;4762542;30;20034;-90
2022/07/07 07:29:15;;;;;;;9.98;1.65;;;;;;;16.89;72.15;102084.13;4756032;30;20465;-89
2022/07/07 07:31:49;;;;;;;8.25;1.70;;;;;;;16.91;72.44;102086.72;4764225;30;20488;-89
2022/07/07 07:34:16;;;;;;;13.25;2.65;;;;;;;16.90;71.84;102090.34;4755922;30;20089;-89
2022/07/07 07:36:45;;;;;;;8.43;1.92;;;;;;;17.00;72.60;102097.16;4756340;30;20031;-88
2022/07/07 07:39:26;;;;;;;7.90;1.98;;;;;;;17.05;73.50;102094.38;4757109;30;20060;-90
2022/07/07 07:41:52;;;;;;;5.13;1.58;;;;;;;17.10;73.46;102104.00;4767630;30;20605;-89
2022/07/07 07:45:09;;;;;;;8.65;1.60;;;;;;;17.27;73.98;102111.56;4762718;30;20040;-91
2022/07/07 07:47:04;;;;;;;7.22;1.33;;;;;;;17.47;72.07;102107.41;4764514;30;20067;-89
2022/07/07 07:49:30;;;;;;;8.05;1.67;;;;;;;17.51;70.03;102112.63;4746706;30;20031;-90
2022/07/07 07:51:59;;;;;;;9.05;2.00;;;;;;;17.47;69.27;102104.72;4756982;30;20075;-91
2022/07/07 07:54:27;;;;;;;9.25;1.50;;;;;;;17.52;69.89;102125.06;4763297;30;20043;-91
2022/07/07 07:57:20;;;;;;;;;;;;;;;;;;;;;
2022/07/07 08:00:18;;;;;;;7.20;1.70;;;;;;;17.27;72.86;102114.22;4758094;30;20097;-90
2022/07/07 08:02:44;;;;;;;5.97;1.50;;;;;;;17.17;75.06;102127.00;4746327;30;20508;-92
2022/07/07 08:05:11;;;;;;;7.40;1.50;;;;;;;17.05;73.71;102126.47;4748094;30;20036;-89
2022/07/07 08:07:37;;;;;;;9.20;1.55;;;;;;;16.85;72.97;102125.25;4764993;30;20100;-91
2022/07/07 08:10:08;;;;;;;5.88;1.45;;;;;;;16.84;73.63;102131.53;4750403;30;20028;-90
2022/07/07 08:12:34;;;;;;;6.00;2.10;;;;;;;16.80;73.70;102140.53;4740018;30;20415;-90
2022/07/07 08:14:59;;;;;;;8.93;1.48;;;;;;;16.75;74.58;102135.28;4753474;30;20293;-90
2022/07/07 08:17:30;;;;;;;5.13;1.17;;;;;;;16.80;74.06;102140.53;4740884;30;20484;-90
2022/07/07 08:19:58;;;;;;;;;;;;;;;16.85;74.50;102153.78;4755672;30;20036;-90
2022/07/07 08:22:24;;;;;;;3.40;1.00;;;;;;;16.82;76.29;102148.53;4757057;30;19913;-90
2022/07/07 08:24:49;;;;;;;4.40;1.40;;;;;;;16.77;74.44;102137.94;4740071;30;20035;-88
2022/07/07 08:27:15;;;;;;;9.80;1.33;;;;;;;16.80;73.86;102151.25;4757135;30;20524;-90
2022/07/07 08:29:44;;;;;;;5.07;1.17;;;;;;;16.82;72.60;102149.41;4746569;30;20104;-89
2022/07/07 08:32:14;;;;;;;8.05;1.73;;;;;;;16.96;72.50;102155.28;4740328;30;20052;-86
2022/07/07 08:34:48;;;;;;;6.60;1.77;;;;;;;16.93;70.42;102141.94;4740597;30;20074;-88
2022/07/07 08:37:14;;;;;;;5.30;1.20;;;;;;;16.97;71.21;102138.28;4747053;30;20504;-88
2022/07/07 08:39:40;;;;;;;5.15;1.35;;;;;;;16.99;71.07;102135.56;4737359;30;20024;-89
2022/07/07 08:42:06;;;;;;;7.75;1.45;;;;;;;17.09;70.11;102142.41;4751161;30;20039;-87
2022/07/07 08:44:32;;;;;;;7.30;1.27;;;;;;;17.25;69.96;102126.78;4745414;30;20048;-91
2022/07/07 08:46:57;;;;;;;5.93;1.42;;;;;;;17.46;69.49;102136.00;4750030;30;20164;-87
2022/07/07 08:49:23;;;;;;;10.75;1.92;;;;;;;17.76;69.34;102128.81;4740021;30;20465;-87
2022/07/07 08:51:49;;;;;;;7.10;1.75;;;;;;;18.11;68.77;102150.09;4743825;30;20036;-89
2022/07/07 08:54:19;;;;;;;8.25;1.55;;;;;;;18.31;67.43;102157.47;4755436;30;20030;-88
2022/07/07 08:56:44;;;;;;;10.02;1.83;;;;;;;18.42;67.66;102152.59;4771759;30;20350;-90
2022/07/07 08:59:28;;;;;;;7.70;1.95;;;;;;;18.36;67.58;102150.13;4743864;30;20028;-88
2022/07/07 09:02:00;;;;;;;4.65;0.98;;;;;;;18.19;66.95;102175.69;4770953;30;20044;-87
2022/07/07 09:04:26;;;;;;;6.15;1.65;;;;;;;17.84;68.79;102166.09;4757554;30;20148;-88
2022/07/07 09:07:04;;;;;;;6.22;1.50;;;;;;;17.74;69.67;102186.03;4745972;30;20043;-87
2022/07/07 09:09:35;;;;;;;6.85;1.50;;;;;;;17.73;69.80;102178.91;4740687;30;20151;-86
2022/07/07 09:12:01;;;;;;;6.97;1.67;;;;;;;17.66;70.13;102175.56;4760858;30;20172;-87
2022/07/07 09:14:39;;;;;;;9.60;1.85;;;;;;;17.74;69.33;102194.09;4744387;30;20111;-88
2022/07/07 09:17:27;;;;;;;9.20;2.10;;;;;;;17.74;68.80;102203.00;4741039;30;20059;-87
2022/07/07 09:20:05;;;;;;;6.05;1.80;;;;;;;17.54;69.29;102179.47;4755003;30;20071;-87
2022/07/07 09:22:43;;;;;;;8.07;1.73;;;;;;;17.58;69.40;102213.28;4743865;30;20378;-88
2022/07/07 09:25:13;;;;;;;7.65;1.30;;;;;;;17.46;68.77;102197.59;4740174;30;20575;-87
2022/07/07 09:27:48;;;;;;;6.88;1.30;;;;;;;17.41;69.16;102199.53;4754205;30;20063;-89
2022/07/07 09:30:34;;;;;;;5.50;1.38;;;;;;;17.47;69.59;102201.13;4754801;30;20047;-89
2022/07/07 09:33:05;;;;;;;5.15;1.35;;;;;;;17.62;69.56;102211.38;4740191;30;20048;-89
2022/07/07 09:38:18;;;;;;;5.85;1.55;;;;;;;18.03;69.32;102211.97;4761121;30;20113;-89
2022/07/07 09:40:54;;;;;;;6.22;1.55;;;;;;;18.21;68.76;102210.50;4754403;30;20047;-87
2022/07/07 09:43:21;;;;;;;4.72;1.35;;;;;;;18.27;67.71;102221.94;4740191;30;20047;-89
2022/07/07 09:46:07;;;;;;;4.30;1.33;;;;;;;18.15;68.09;102213.38;4748998;30;20085;-90
2022/07/07 09:48:35;;;;;;;5.47;1.60;;;;;;;18.13;69.59;102207.22;4754387;30;20139;-90
2022/07/07 09:51:11;;;;;;;6.60;1.48;;;;;;;18.26;68.50;102213.94;4739691;30;20707;-89
2022/07/07 09:53:58;;;;;;;4.13;1.30;;;;;;;18.45;67.25;102230.31;4754538;30;20457;-88
2022/07/07 09:56:37;;;;;;;4.18;1.20;;;;;;;18.47;67.48;102218.59;4737513;30;20389;-89
2022/07/07 09:59:08;;;;;;;6.50;1.52;;;;;;;18.58;67.04;102230.78;4732341;30;20048;-88
2022/07/07 10:01:39;;;;;;;7.18;1.33;;;;;;;18.70;64.26;102249.16;4768632;30;20143;-88
2022/07/07 10:04:08;;;;;;;4.53;1.38;;;;;;;18.54;65.11;102238.03;4731018;30;20051;-88
2022/07/07 10:06:36;;;;;;;3.15;1.05;;;;;;;18.57;65.55;102253.16;4743203;30;20047;-89
2022/07/07 10:09:08;;;;;;;3.22;1.17;;;;;;;18.32;66.16;102247.69;4746478;30;20061;-87
2022/07/07 10:11:45;;;;;;;7.55;1.55;;;;;;;18.14;67.24;102262.56;4771999;30;20044;-87
2022/07/07 10:14:16;;;;;;;7.60;1.50;;;;;;;17.97;68.24;102263.09;4770797;30;20036;-88
2022/07/07 10:16:49;;;;;;;3.53;1.10;;;;;;;17.87;69.06;102267.84;4754521;30;20130;-87
2022/07/07 10:19:32;;;;;;;2.83;0.93;;;;;;;17.91;69.96;102268.66;4736268;30;20515;-85
2022/07/07 10:21:59;;;;;;;4.90;1.15;;;;;;;17.80;70.10;102280.56;4737364;30;20067;-89
2022/07/07 10:24:27;;;;;;;7.50;1.42;;;;;;;17.79;70.26;102276.06;4752194;30;20036;-89
2022/07/07 10:26:58;;;;;;;4.93;1.40;;;;;;;17.89;71.05;102278.53;4738650;30;20065;-87
2022/07/07 10:29:49;;;;;;;5.15;1.20;;;;;;;18.16;70.34;102282.19;4738258;30;20101;-92
2022/07/07 10:32:28;;;;;;;9.27;1.60;;;;;;;18.29;68.38;102278.19;4738432;30;20127;-87
2022/07/07 10:34:56;;;;;;;7.97;1.45;;;;;;;18.35;69.52;102285.19;4735873;30;20123;-89
2022/07/07 10:37:24;;;;;;;4.18;1.80;;;;;;;18.49;69.98;102282.91;4735474;30;20046;-87
2022/07/07 10:39:54;;;;;;;5.15;1.45;;;;;;;18.63;68.10;102288.72;4736263;30;20159;-88
2022/07/07 10:42:49;;;;;;;3.35;1.38;;;;;;;18.64;67.45;102282.44;4744001;30;20089;-88
2022/07/07 10:45:16;;;;;;;5.18;1.48;;;;;;;18.52;67.36;102298.03;4752175;30;20071;-87
2022/07/07 10:47:41;;;;;;;3.53;1.30;;;;;;;18.41;67.86;102304.63;4760894;30;20042;-89
2022/07/07 10:50:28;;;;;;;9.20;1.90;;;;;;;18.28;69.48;102311.28;4766564;30;20036;-88
2022/07/07 10:52:55;;;;;;;4.82;1.85;;;;;;;18.23;70.85;102316.78;4753704;30;20036;-88
2022/07/07 10:55:41;;;;;;;4.47;1.23;;;;;;;18.29;71.13;102322.91;4767211;30;20030;-87
2022/07/07 10:58:45;;;;;;;6.82;1.30;;;;;;;18.33;70.72;102317.38;4745293;30;20043;-87
2022/07/07 11:01:11;;;;;;;4.65;1.20;;;;;;;18.39;71.43;102324.38;4760619;30;20545;-88
2022/07/07 11:03:36;;;;;;;8.93;1.48;;;;;;;18.51;70.15;102328.47;4755126;30;20143;-88
2022/07/07 11:06:03;;;;;;;5.00;1.45;;;;;;;18.47;70.31;102333.94;4734513;30;20127;-86
2022/07/07 11:08:36;;;;;;;3.20;1.40;;;;;;;18.32;69.75;102315.63;4716660;30;20042;-88
2022/07/07 11:11:04;;;;;;;5.65;1.35;;;;;;;18.46;69.24;102334.84;4741781;30;20031;-88
2022/07/07 11:13:30;;;;;;;7.15;2.15;;;;;;;18.44;69.54;102342.06;4767060;30;20039;-88
2022/07/07 11:16:28;;;;;;;7.13;2.20;;;;;;;18.38;70.48;102346.75;4746563;30;20126;-88
2022/07/07 11:18:59;;;;;;;7.43;2.10;;;;;;;18.20;73.42;102358.88;4748295;30;20082;-87
2022/07/07 11:21:35;;;;;;;10.68;2.30;;;;;;;18.05;74.87;102365.56;4768727;30;20047;-87
2022/07/07 11:24:02;;;;;;;9.68;2.20;;;;;;;17.98;75.29;102366.72;4760997;30;20035;-87
2022/07/07 11:26:28;;;;;;;9.50;2.10;;;;;;;18.02;75.17;102365.69;4736288;30;20449;-87
2022/07/07 11:28:58;;;;;;;10.07;2.08;;;;;;;18.20;74.34;102354.44;4729599;30;20122;-87
2022/07/07 11:31:27;;;;;;;9.25;2.20;;;;;;;18.38;73.80;102368.22;4723801;30;20400;-87
2022/07/07 11:33:55;;;;;;;11.07;2.50;;;;;;;18.31;72.74;102370.19;4746816;30;20381;-86